Current Weather

Monmouth Exec

Belmar/Farmingdale, New Jersey (KBLM)

Report from: Saturday, June 22, 2024 5:56 AM EDT
Current time: Saturday, June 22, 2024 6:48 AM EDT

Nearby weather – Weather history – Daily summaries
Weather forecast

Temperature22.8°C (73.0°F)
Dew point20.6°C (69.1°F)
Winds 7 kts (3.6 m/s, 8.1 mph) Southwest (220°)
Clouds Sky clear
Altimeter30.08 in.Hg (1019 mB)
Relative humidity87 %
Density altitude1,055 ft. (322 m)
Sea-level pressure101.9 kPa (1019 mB, 30.08 in.Hg)
Remarks Fully automated report
System requires maintenance
Automated weather observing station with precipitation discriminator
Present weather sensor not operating
Runway visual range not reported
Flight conditions Visual Meteorological Conditions
Raw dataKBLM 220956Z AUTO 22007KT CLR 23/21 A3008 RMK AO2 SLP186 T02280206 PWINO RVRNO $
An error has occurred. This application may no longer respond until reloaded. Reload 🗙